Time;durP1;ratioP1;P1;durP2;ratioP2;P2;SDS_P1;SDS_P2;PMS_P1;PMS_P2;Temp;Humidity;BMP_temperature;BMP_pressure;BME280_temperature;BME280_humidity;BME280_pressure;Samples;Min_cycle;Max_cycle;Signal;HPM_P1;HPM_P2
2022/05/12 00:02:51;;;;;;;4.18;1.75;;;;;;;;;;5058238;28;20024;-58
2022/05/12 00:05:37;;;;;;;2.80;1.70;;;;;;;;;;5082671;28;20450;-58
2022/05/12 00:11:19;;;;;;;2.90;1.73;;;;;;;;;;5009345;28;20492;-58
2022/05/12 00:16:57;;;;;;;7.35;2.00;;;;;;;;;;5081179;28;20387;-58
2022/05/12 00:22:29;;;;;;;3.13;2.20;;;;;;;;;;5050600;28;20518;-58
2022/05/12 00:25:16;;;;;;;3.40;2.28;;;;;;;;;;5085791;28;20074;-58
2022/05/12 00:28:01;;;;;;;7.85;2.78;;;;;;;;;;5085304;28;20025;-58
2022/05/12 00:30:46;;;;;;;4.10;2.72;;;;;;;;;;5067478;28;20078;-58
2022/05/12 00:33:26;;;;;;;;;;;;;;;;;;;;;
2022/05/12 00:39:42;;;;;;;;;;;;;;;;;;;;;
2022/05/12 00:42:37;;;;;;;3.17;2.05;;;;;;;;;;5048720;28;20119;-58
2022/05/12 00:45:49;;;;;;;2.95;2.20;;;;;;;;;;5085715;28;20431;-58
2022/05/12 00:48:21;;;;;;;3.38;2.40;;;;;;;;;;5066971;28;20040;-58
2022/05/12 00:51:15;;;;;;;;;;;;;;;;;;;;;
2022/05/12 00:56:56;;;;;;;3.30;1.90;;;;;;;;;;5085273;28;20047;-58
2022/05/12 01:03:03;;;;;;;7.88;2.15;;;;;;;;;;5077374;28;20100;-58
2022/05/12 01:06:07;;;;;;;4.20;2.22;;;;;;;;;;5034666;28;20063;-58
2022/05/12 01:08:56;;;;;;;3.42;2.47;;;;;;;;;;5061018;28;20067;-58
2022/05/12 01:11:47;;;;;;;3.30;2.13;;;;;;;;;;5077229;28;20028;-58
2022/05/12 01:14:25;;;;;;;3.15;2.40;;;;;;;;;;5085251;28;20031;-59
2022/05/12 01:17:24;;;;;;;;;;;;;;;;;;;;;
2022/05/12 01:20:15;;;;;;;5.20;2.70;;;;;;;;;;5081201;28;20177;-58
2022/05/12 01:23:19;;;;;;;3.83;2.10;;;;;;;;;;5084515;28;20255;-58
2022/05/12 01:26:01;;;;;;;4.25;2.50;;;;;;;;;;5084596;28;20032;-59
2022/05/12 01:29:05;;;;;;;3.03;2.17;;;;;;;;;;5049550;28;20040;-58
2022/05/12 01:31:37;;;;;;;3.33;2.65;;;;;;;;;;5083546;28;20052;-58
2022/05/12 01:39:53;;;;;;;6.05;2.70;;;;;;;;;;5073351;28;20029;-59
2022/05/12 01:42:45;;;;;;;3.42;2.42;;;;;;;;;;5084530;28;20025;-58
2022/05/12 01:45:24;;;;;;;3.20;2.55;;;;;;;;;;5077664;28;20478;-58
2022/05/12 01:48:50;;;;;;;4.45;2.33;;;;;;;;;;5066061;28;20044;-59
2022/05/12 01:51:00;;;;;;;3.35;2.40;;;;;;;;;;5069156;28;20040;-58
2022/05/12 01:53:30;;;;;;;4.28;2.63;;;;;;;;;;5065396;28;20029;-58
2022/05/12 01:56:06;;;;;;;3.25;2.40;;;;;;;;;;5084409;28;20078;-58
2022/05/12 01:58:52;;;;;;;3.30;2.35;;;;;;;;;;5042231;28;20061;-58
2022/05/12 02:01:33;;;;;;;4.53;2.53;;;;;;;;;;5025751;28;20043;-58
2022/05/12 02:04:20;;;;;;;3.22;2.58;;;;;;;;;;5040714;28;20040;-59
2022/05/12 02:07:09;;;;;;;3.42;2.15;;;;;;;;;;5042688;28;20491;-58
2022/05/12 02:09:50;;;;;;;2.63;1.95;;;;;;;;;;5042397;28;20064;-58
2022/05/12 02:12:29;;;;;;;5.97;2.80;;;;;;;;;;5042896;28;20060;-58
2022/05/12 02:15:13;;;;;;;3.50;2.35;;;;;;;;;;5043247;28;20064;-58
2022/05/12 02:17:45;;;;;;;4.03;2.67;;;;;;;;;;5040554;28;20575;-59
2022/05/12 02:26:31;;;;;;;5.22;2.72;;;;;;;;;;4944798;29;20038;-59
2022/05/12 02:29:09;;;;;;;8.43;2.47;;;;;;;;;;4950550;29;20047;-59
2022/05/12 02:34:46;;;;;;;4.85;2.95;;;;;;;;;;5023443;28;20052;-58
2022/05/12 02:40:42;;;;;;;3.53;2.47;;;;;;;;;;5053602;28;20036;-60
2022/05/12 02:43:44;;;;;;;3.78;2.88;;;;;;;;;;5063869;28;20029;-59
2022/05/12 02:47:03;;;;;;;4.03;2.70;;;;;;;;;;5063008;28;20049;-59
2022/05/12 02:49:58;;;;;;;3.22;2.10;;;;;;;;;;4985347;28;20444;-59
2022/05/12 02:52:43;;;;;;;3.90;2.25;;;;;;;;;;5001631;28;20026;-59
2022/05/12 02:55:27;;;;;;;3.25;2.42;;;;;;;;;;5027301;28;20044;-59
2022/05/12 02:58:06;;;;;;;3.90;2.42;;;;;;;;;;5062959;28;20033;-59
2022/05/12 03:00:54;;;;;;;5.45;2.47;;;;;;;;;;5045308;28;20037;-59
2022/05/12 03:06:57;;;;;;;2.60;1.75;;;;;;;;;;5039277;28;20064;-59
2022/05/12 03:10:29;;;;;;;6.88;2.60;;;;;;;;;;5062899;28;20062;-59
2022/05/12 03:12:56;;;;;;;3.08;2.42;;;;;;;;;;5049490;28;20040;-59
2022/05/12 03:18:37;;;;;;;6.05;2.28;;;;;;;;;;5001435;28;20050;-59
2022/05/12 03:27:10;;;;;;;5.57;2.80;;;;;;;;;;4981852;28;20122;-59
2022/05/12 03:29:46;;;;;;;6.90;2.65;;;;;;;;;;4979837;28;20106;-59
2022/05/12 03:32:18;;;;;;;3.38;2.45;;;;;;;;;;4958986;28;20066;-59
2022/05/12 03:34:50;;;;;;;2.97;1.60;;;;;;;;;;4973616;28;20477;-59
2022/05/12 03:38:00;;;;;;;3.92;1.98;;;;;;;;;;4976253;28;20120;-59
2022/05/12 03:46:53;;;;;;;3.78;2.38;;;;;;;;;;5021075;28;20033;-59
2022/05/12 03:49:40;;;;;;;3.08;1.95;;;;;;;;;;5008841;28;20033;-59
2022/05/12 03:52:17;;;;;;;;;;;;;;;;;;;;;
2022/05/12 03:54:52;;;;;;;2.80;2.10;;;;;;;;;;5062491;28;20097;-59
2022/05/12 03:57:29;;;;;;;4.20;2.45;;;;;;;;;;5063136;28;20025;-59
2022/05/12 03:59:56;;;;;;;3.50;1.98;;;;;;;;;;5062595;28;20028;-59
2022/05/12 04:03:00;;;;;;;3.40;2.20;;;;;;;;;;5063538;28;20017;-59
2022/05/12 04:08:32;;;;;;;1.90;1.17;;;;;;;;;;4997250;28;20059;-59
2022/05/12 04:11:27;;;;;;;2.97;1.80;;;;;;;;;;5054350;28;20029;-59
2022/05/12 04:13:57;;;;;;;2.28;1.35;;;;;;;;;;5062477;28;20033;-59
2022/05/12 04:16:39;;;;;;;2.50;1.75;;;;;;;;;;5062234;28;20343;-59
2022/05/12 04:22:22;;;;;;;2.72;1.85;;;;;;;;;;5014349;28;20049;-59
2022/05/12 04:24:57;;;;;;;3.58;1.65;;;;;;;;;;5033563;28;20465;-60
2022/05/12 04:27:37;;;;;;;2.80;1.45;;;;;;;;;;5064101;28;20070;-59
2022/05/12 04:30:19;;;;;;;3.40;1.92;;;;;;;;;;5082391;28;20092;-57
2022/05/12 04:36:07;;;;;;;2.70;1.58;;;;;;;;;;5081324;28;20120;-58
2022/05/12 04:39:10;;;;;;;;;;;;;;;;;;;;;
2022/05/12 04:42:21;;;;;;;2.22;1.45;;;;;;;;;;5078773;28;20128;-58
2022/05/12 04:45:10;;;;;;;2.50;1.52;;;;;;;;;;5081871;28;20406;-58
2022/05/12 04:48:02;;;;;;;2.53;1.25;;;;;;;;;;5081428;28;20027;-58
2022/05/12 04:50:53;;;;;;;5.13;1.60;;;;;;;;;;5057609;28;20037;-58
2022/05/12 04:53:38;;;;;;;10.30;2.40;;;;;;;;;;5080851;28;20029;-58
2022/05/12 04:56:39;;;;;;;2.20;1.17;;;;;;;;;;5081812;28;20037;-58
2022/05/12 04:59:11;;;;;;;2.85;1.63;;;;;;;;;;5082087;28;20021;-59
2022/05/12 05:02:00;;;;;;;2.28;1.55;;;;;;;;;;5081152;28;20028;-58
2022/05/12 05:08:09;;;;;;;3.15;1.42;;;;;;;;;;5022319;28;20034;-59
2022/05/12 05:10:48;;;;;;;5.93;1.25;;;;;;;;;;5007544;28;20029;-59
2022/05/12 05:13:43;;;;;;;2.95;1.25;;;;;;;;;;5077093;28;20035;-60
2022/05/12 05:22:11;;;;;;;4.07;1.13;;;;;;;;;;5002831;28;20070;-57
2022/05/12 05:25:27;;;;;;;3.47;1.92;;;;;;;;;;5061769;28;20060;-57
2022/05/12 05:31:27;;;;;;;3.60;1.60;;;;;;;;;;5060389;28;20119;-58
2022/05/12 05:37:41;;;;;;;2.20;1.45;;;;;;;;;;5063242;28;20059;-59
2022/05/12 05:40:35;;;;;;;7.97;2.45;;;;;;;;;;5064836;28;20074;-59
2022/05/12 05:43:29;;;;;;;;;;;;;;;;;;;;;
2022/05/12 05:49:41;;;;;;;2.10;1.20;;;;;;;;;;5032569;28;20029;-59
2022/05/12 05:55:34;;;;;;;3.08;1.17;;;;;;;;;;5063725;28;20055;-59
2022/05/12 05:58:43;;;;;;;4.00;1.13;;;;;;;;;;5045801;28;20021;-59
2022/05/12 06:05:02;;;;;;;2.10;1.30;;;;;;;;;;5022375;28;20055;-60
2022/05/12 06:07:57;;;;;;;2.28;1.27;;;;;;;;;;4966890;28;20062;-58
2022/05/12 06:13:23;;;;;;;1.55;1.00;;;;;;;;;;4979151;28;20039;-58
2022/05/12 06:16:01;;;;;;;2.67;1.58;;;;;;;;;;4966476;28;20129;-58
2022/05/12 06:18:53;;;;;;;8.10;1.52;;;;;;;;;;4982109;28;20535;-58
2022/05/12 06:21:25;;;;;;;2.65;1.38;;;;;;;;;;4996886;28;20045;-58
2022/05/12 06:27:23;;;;;;;4.50;1.25;;;;;;;;;;4969582;28;20037;-58
2022/05/12 06:29:59;;;;;;;2.38;1.48;;;;;;;;;;5002498;28;20038;-58
2022/05/12 06:32:32;;;;;;;3.33;1.75;;;;;;;;;;4999089;28;20045;-59
2022/05/12 06:38:18;;;;;;;2.42;1.38;;;;;;;;;;4999844;28;20150;-58
2022/05/12 06:44:12;;;;;;;1.75;0.95;;;;;;;;;;4962699;28;20054;-59
2022/05/12 06:46:41;;;;;;;2.90;1.30;;;;;;;;;;4978627;28;20613;-59
2022/05/12 06:49:19;;;;;;;2.25;1.38;;;;;;;;;;4940896;29;20083;-59
2022/05/12 06:52:09;;;;;;;1.92;1.08;;;;;;;;;;4968147;28;20030;-59
2022/05/12 06:57:42;;;;;;;2.92;1.38;;;;;;;;;;5018244;28;20288;-59
2022/05/12 07:00:36;;;;;;;4.30;1.17;;;;;;;;;;5018505;28;20034;-59
2022/05/12 07:03:12;;;;;;;3.25;1.95;;;;;;;;;;5017581;28;20395;-58
2022/05/12 07:05:47;;;;;;;2.08;1.35;;;;;;;;;;5001814;28;20017;-58
2022/05/12 07:11:26;;;;;;;3.83;1.95;;;;;;;;;;5019456;28;20072;-59
2022/05/12 07:14:14;;;;;;;;;;;;;;;;;;;;;
2022/05/12 07:17:06;;;;;;;6.15;1.67;;;;;;;;;;4981672;28;20119;-58
2022/05/12 07:19:59;;;;;;;;;;;;;;;;;;;;;
2022/05/12 07:33:49;;;;;;;4.30;1.52;;;;;;;;;;5022433;28;20032;-59
2022/05/12 07:36:26;;;;;;;3.20;1.50;;;;;;;;;;5030336;28;20490;-58
2022/05/12 07:39:08;;;;;;;2.55;1.42;;;;;;;;;;5078404;28;20032;-58
2022/05/12 07:41:44;;;;;;;2.65;1.40;;;;;;;;;;5078544;28;20021;-58
2022/05/12 07:44:18;;;;;;;3.08;1.30;;;;;;;;;;5077810;28;20028;-59
2022/05/12 07:47:23;;;;;;;5.00;1.95;;;;;;;;;;5078856;28;20025;-58
2022/05/12 07:50:06;;;;;;;3.53;1.90;;;;;;;;;;5017260;28;20030;-59
2022/05/12 07:52:48;;;;;;;3.20;2.13;;;;;;;;;;5018627;28;20424;-58
2022/05/12 07:55:43;;;;;;;2.17;1.30;;;;;;;;;;5079166;28;20080;-58
2022/05/12 07:58:35;;;;;;;;;;;;;;;;;;;;;
2022/05/12 08:01:15;;;;;;;2.97;1.40;;;;;;;;;;5045319;28;20119;-58
2022/05/12 08:03:57;;;;;;;3.07;1.50;;;;;;;;;;5062537;28;20540;-58
2022/05/12 08:06:47;;;;;;;2.53;1.35;;;;;;;;;;5063028;28;20274;-58
2022/05/12 08:09:58;;;;;;;;;;;;;;;;;;;;;
2022/05/12 08:12:30;;;;;;;2.55;1.65;;;;;;;;;;5079759;28;20086;-58
2022/05/12 08:15:24;;;;;;;2.13;1.05;;;;;;;;;;5077812;28;20068;-58
2022/05/12 08:21:05;;;;;;;3.38;1.52;;;;;;;;;;5076655;28;20040;-58
2022/05/12 08:23:59;;;;;;;1.77;1.05;;;;;;;;;;5069504;28;20032;-58
2022/05/12 08:29:30;;;;;;;2.88;1.40;;;;;;;;;;5079612;28;20028;-58
2022/05/12 08:32:17;;;;;;;2.47;1.55;;;;;;;;;;5065719;28;20032;-58
2022/05/12 08:44:56;;;;;;;3.83;2.13;;;;;;;;;;4985064;28;20063;-59
2022/05/12 08:47:51;;;;;;;2.72;1.73;;;;;;;;;;4986331;28;20509;-58
2022/05/12 08:50:36;;;;;;;2.30;1.67;;;;;;;;;;5024455;28;20030;-58
2022/05/12 08:53:20;;;;;;;3.90;1.83;;;;;;;;;;5023150;28;20431;-59
2022/05/12 09:02:35;;;;;;;2.45;1.50;;;;;;;;;;4990731;28;20057;-58
2022/05/12 09:08:48;;;;;;;;;;;;;;;;;;;;;
2022/05/12 09:11:27;;;;;;;2.00;1.42;;;;;;;;;;4963342;28;20529;-59
2022/05/12 09:13:59;;;;;;;3.05;2.10;;;;;;;;;;5006150;28;20043;-58
2022/05/12 09:16:51;;;;;;;3.55;1.95;;;;;;;;;;5006039;28;20038;-58
2022/05/12 09:25:52;;;;;;;2.65;1.92;;;;;;;;;;5002837;28;20069;-58
2022/05/12 09:28:52;;;;;;;;;;;;;;;;;;;;;
2022/05/12 09:31:19;;;;;;;;;;;;;;;;;;5087919;28;20112;-58
2022/05/12 09:34:14;;;;;;;3.65;1.90;;;;;;;;;;5087090;28;19958;-59
2022/05/12 09:37:03;;;;;;;4.22;2.20;;;;;;;;;;5076918;28;20496;-58
2022/05/12 09:39:57;;;;;;;2.45;1.65;;;;;;;;;;5076213;28;20063;-58
2022/05/12 09:42:56;;;;;;;2.33;1.45;;;;;;;;;;5050282;28;20478;-58
2022/05/12 09:45:56;;;;;;;6.90;1.58;;;;;;;;;;5058093;28;20028;-58
2022/05/12 09:51:53;;;;;;;4.85;2.42;;;;;;;;;;5075927;28;20448;-58
2022/05/12 09:58:09;;;;;;;6.43;1.85;;;;;;;;;;5014045;28;20124;-58
2022/05/12 10:00:59;;;;;;;3.58;2.30;;;;;;;;;;5076329;28;20060;-58
2022/05/12 10:09:23;;;;;;;3.03;2.03;;;;;;;;;;5076406;28;20031;-58
2022/05/12 10:12:17;;;;;;;3.33;2.47;;;;;;;;;;5076363;28;20032;-58
2022/05/12 10:15:06;;;;;;;4.28;2.58;;;;;;;;;;5075855;28;20021;-58
2022/05/12 10:18:00;;;;;;;3.60;2.33;;;;;;;;;;5057354;28;20496;-59
2022/05/12 10:21:02;;;;;;;5.05;2.38;;;;;;;;;;5057833;28;20119;-58
2022/05/12 10:23:47;;;;;;;4.90;3.63;;;;;;;;;;4997346;28;20069;-58
2022/05/12 10:26:50;;;;;;;3.55;2.83;;;;;;;;;;5011767;28;20525;-58
2022/05/12 10:29:36;;;;;;;16.60;2.83;;;;;;;;;;5040617;28;20032;-58
2022/05/12 10:32:38;;;;;;;6.80;3.67;;;;;;;;;;5076350;28;20025;-59
2022/05/12 10:35:48;;;;;;;;;;;;;;;;;;;;;
2022/05/12 10:41:36;;;;;;;;;;;;;;;;;;;;;
2022/05/12 10:44:28;;;;;;;3.22;2.33;;;;;;;;;;5063386;28;20119;-58
2022/05/12 10:47:18;;;;;;;3.53;2.92;;;;;;;;;;5076418;28;20051;-59
2022/05/12 10:50:04;;;;;;;3.05;2.05;;;;;;;;;;5049726;28;20036;-59
2022/05/12 10:53:02;;;;;;;6.45;3.08;;;;;;;;;;5077686;28;20044;-59
2022/05/12 10:59:15;;;;;;;6.35;2.75;;;;;;;;;;5007551;28;20034;-59
2022/05/12 11:02:43;;;;;;;4.20;2.83;;;;;;;;;;4995863;28;20430;-59
2022/05/12 11:05:02;;;;;;;4.50;3.10;;;;;;;;;;5065288;28;20024;-59
2022/05/12 11:07:45;;;;;;;3.03;2.05;;;;;;;;;;5057202;28;20486;-59
2022/05/12 11:10:33;;;;;;;4.25;2.38;;;;;;;;;;5073281;28;20032;-59
2022/05/12 11:13:31;;;;;;;;;;;;;;;;;;;;;
2022/05/12 11:16:53;;;;;;;4.63;2.58;;;;;;;;;;5070896;28;20044;-59
2022/05/12 11:19:29;;;;;;;4.53;3.20;;;;;;;;;;5069888;28;20032;-59
2022/05/12 11:25:34;;;;;;;5.05;3.20;;;;;;;;;;5011505;28;20469;-59
2022/05/12 11:31:31;;;;;;;;;;;;;;;;;;;;;
2022/05/12 11:34:12;;;;;;;2.70;2.38;;;;;;;;;;5012240;28;20046;-58
2022/05/12 11:36:56;;;;;;;3.30;2.53;;;;;;;;;;4982844;28;20045;-59
2022/05/12 11:39:32;;;;;;;5.53;3.15;;;;;;;;;;4995988;28;20034;-59
2022/05/12 11:45:35;;;;;;;4.63;3.03;;;;;;;;;;5009927;28;20034;-59
2022/05/12 11:48:30;;;;;;;;;;;;;;;;;;;;;
2022/05/12 11:51:20;;;;;;;5.32;2.70;;;;;;;;;;5074372;28;20493;-59
2022/05/12 11:54:23;;;;;;;4.38;3.58;;;;;;;;;;5048453;28;20056;-59
2022/05/12 11:57:12;;;;;;;3.70;2.58;;;;;;;;;;5055887;28;20074;-59
2022/05/12 11:59:49;;;;;;;3.30;2.70;;;;;;;;;;5057072;28;20459;-59
2022/05/12 12:02:34;;;;;;;3.65;2.63;;;;;;;;;;5055641;28;20025;-59
2022/05/12 12:05:21;;;;;;;3.55;2.75;;;;;;;;;;5074083;28;20356;-59
2022/05/12 12:08:02;;;;;;;2.97;2.42;;;;;;;;;;5039141;28;20032;-59
2022/05/12 12:11:09;;;;;;;3.45;2.60;;;;;;;;;;5071369;28;20051;-60
2022/05/12 12:13:38;;;;;;;4.47;3.17;;;;;;;;;;5070423;28;20042;-60
2022/05/12 12:16:18;;;;;;;4.20;2.88;;;;;;;;;;5075455;28;20040;-60
2022/05/12 12:19:03;;;;;;;3.05;2.45;;;;;;;;;;5078421;28;20024;-61
2022/05/12 12:22:14;;;;;;;4.75;3.28;;;;;;;;;;5060585;28;20078;-60
2022/05/12 12:25:02;;;;;;;4.63;3.22;;;;;;;;;;4990492;28;20049;-60
2022/05/12 12:27:47;;;;;;;5.60;3.25;;;;;;;;;;5058453;28;20028;-60
2022/05/12 12:30:49;;;;;;;3.60;2.85;;;;;;;;;;5057510;28;20352;-60
2022/05/12 12:33:36;;;;;;;3.83;3.08;;;;;;;;;;5039810;28;20037;-60
2022/05/12 12:39:16;;;;;;;6.78;2.78;;;;;;;;;;5057637;28;20044;-60
2022/05/12 12:41:48;;;;;;;3.97;2.70;;;;;;;;;;5056795;28;20544;-60
2022/05/12 12:44:41;;;;;;;5.97;2.97;;;;;;;;;;5057133;28;20036;-60
2022/05/12 12:47:54;;;;;;;5.80;3.50;;;;;;;;;;5026322;28;20506;-60
2022/05/12 12:56:57;;;;;;;4.05;2.83;;;;;;;;;;5015377;28;20049;-60
2022/05/12 12:59:38;;;;;;;;;;;;;;;;;;;;;
2022/05/12 13:02:13;;;;;;;;;;;;;;;;;;5058417;28;20120;-60
2022/05/12 13:04:39;;;;;;;4.72;2.33;;;;;;;;;;5052436;28;19931;-60
2022/05/12 13:07:27;;;;;;;4.63;2.53;;;;;;;;;;5060494;28;20087;-60
2022/05/12 13:10:07;;;;;;;4.25;3.13;;;;;;;;;;5038718;28;20430;-59
2022/05/12 13:12:52;;;;;;;5.72;3.03;;;;;;;;;;5056674;28;20039;-59
2022/05/12 13:15:44;;;;;;;3.53;2.53;;;;;;;;;;5037890;28;20049;-59
2022/05/12 13:18:22;;;;;;;7.97;2.67;;;;;;;;;;5037809;28;20478;-59
2022/05/12 13:26:52;;;;;;;5.63;3.33;;;;;;;;;;5076681;28;20432;-59
2022/05/12 13:30:06;;;;;;;3.45;2.30;;;;;;;;;;5075314;28;20036;-59
2022/05/12 13:32:44;;;;;;;2.55;1.98;;;;;;;;;;5014343;28;20569;-59
2022/05/12 13:35:24;;;;;;;2.85;2.03;;;;;;;;;;5055648;28;20102;-59
2022/05/12 13:38:16;;;;;;;3.28;2.10;;;;;;;;;;5057604;28;20025;-59
2022/05/12 13:43:51;;;;;;;3.55;2.38;;;;;;;;;;5073355;28;20097;-59
2022/05/12 13:46:26;;;;;;;3.28;2.45;;;;;;;;;;5057873;28;20032;-60
2022/05/12 13:49:28;;;;;;;7.63;2.58;;;;;;;;;;5057830;28;20037;-60
2022/05/12 13:55:06;;;;;;;5.72;2.30;;;;;;;;;;5061761;28;20029;-60
2022/05/12 13:57:35;;;;;;;3.47;2.03;;;;;;;;;;5075040;28;20064;-60
2022/05/12 14:00:34;;;;;;;;;;;;;;;;;;;;;
2022/05/12 14:03:25;;;;;;;5.25;2.08;;;;;;;;;;5076637;28;20116;-63
2022/05/12 14:05:54;;;;;;;;;;;;;;;;;;5075923;28;20474;-60
2022/05/12 14:08:35;;;;;;;3.20;2.45;;;;;;;;;;5074724;28;20354;-60
2022/05/12 14:11:23;;;;;;;7.28;2.45;;;;;;;;;;5074514;28;20021;-60
2022/05/12 14:20:06;;;;;;;2.47;1.88;;;;;;;;;;5076057;28;20036;-60
2022/05/12 14:22:42;;;;;;;2.72;2.13;;;;;;;;;;5076029;28;20454;-60
2022/05/12 14:25:10;;;;;;;4.43;2.83;;;;;;;;;;4989816;28;20048;-60
2022/05/12 14:28:12;;;;;;;4.07;2.17;;;;;;;;;;5056764;28;20062;-59
2022/05/12 14:30:49;;;;;;;;;;;;;;;;;;;;;
2022/05/12 14:33:23;;;;;;;5.47;2.33;;;;;;;;;;5051677;28;20124;-60
2022/05/12 14:36:28;;;;;;;3.45;2.08;;;;;;;;;;5037569;28;20064;-60
2022/05/12 14:39:12;;;;;;;5.07;2.30;;;;;;;;;;5056051;28;20021;-60
2022/05/12 14:42:29;;;;;;;4.05;2.15;;;;;;;;;;5037495;28;20041;-60
2022/05/12 14:45:22;;;;;;;4.57;2.50;;;;;;;;;;5042922;28;20321;-60
2022/05/12 14:48:24;;;;;;;;;;;;;;;;;;;;;
2022/05/12 14:51:36;;;;;;;4.00;2.35;;;;;;;;;;5056525;28;20503;-60
2022/05/12 14:54:05;;;;;;;3.38;2.30;;;;;;;;;;5054939;28;20058;-60
2022/05/12 14:57:16;;;;;;;;;;;;;;;;;;;;;
2022/05/12 15:00:05;;;;;;;3.42;2.05;;;;;;;;;;5056045;28;20502;-60
2022/05/12 15:03:02;;;;;;;3.28;2.38;;;;;;;;;;5036936;28;20408;-61
2022/05/12 15:06:09;;;;;;;3.40;2.40;;;;;;;;;;5054965;28;20457;-60
2022/05/12 15:08:47;;;;;;;4.07;2.20;;;;;;;;;;5054816;28;20040;-60
2022/05/12 15:11:34;;;;;;;5.95;2.63;;;;;;;;;;5043247;28;20472;-60
2022/05/12 15:14:29;;;;;;;3.83;2.17;;;;;;;;;;5041302;28;20025;-60
2022/05/12 15:17:39;;;;;;;6.78;2.50;;;;;;;;;;5037326;28;20041;-60
2022/05/12 15:20:30;;;;;;;3.47;2.40;;;;;;;;;;4992116;28;20516;-60
2022/05/12 15:26:08;;;;;;;;;;;;;;;;;;;;;
2022/05/12 15:31:56;;;;;;;3.33;2.47;;;;;;;;;;5060153;28;20047;-60
2022/05/12 15:34:50;;;;;;;;;;;;;;;;;;;;;
2022/05/12 15:37:28;;;;;;;4.95;2.60;;;;;;;;;;5073793;28;20378;-60
2022/05/12 15:40:21;;;;;;;3.60;3.13;;;;;;;;;;5074259;28;20650;-60
2022/05/12 15:46:37;;;;;;;2.50;1.88;;;;;;;;;;5006952;28;20037;-58
2022/05/12 15:49:41;;;;;;;4.30;2.38;;;;;;;;;;5012254;28;20037;-58
2022/05/12 15:52:19;;;;;;;6.13;2.17;;;;;;;;;;5053914;28;20467;-58
2022/05/12 15:57:59;;;;;;;3.60;2.67;;;;;;;;;;5063096;28;20428;-58
2022/05/12 16:00:52;;;;;;;3.10;2.13;;;;;;;;;;5073901;28;20407;-58
2022/05/12 16:06:32;;;;;;;3.17;2.42;;;;;;;;;;5073855;28;20043;-58
2022/05/12 16:09:27;;;;;;;4.63;2.78;;;;;;;;;;5074799;28;20025;-58
2022/05/12 16:14:58;;;;;;;3.00;2.30;;;;;;;;;;5073924;28;20529;-60
2022/05/12 16:17:46;;;;;;;;;;;;;;;;;;;;;
2022/05/12 16:23:25;;;;;;;3.65;2.60;;;;;;;;;;4996727;28;20053;-60
2022/05/12 16:26:01;;;;;;;3.08;2.30;;;;;;;;;;5032071;28;20046;-60
2022/05/12 16:31:42;;;;;;;7.03;3.90;;;;;;;;;;5007523;28;20136;-60
2022/05/12 16:34:23;;;;;;;6.82;4.15;;;;;;;;;;5015549;28;20029;-60
2022/05/12 16:37:39;;;;;;;;;;;;;;;;;;;;;
2022/05/12 16:40:31;;;;;;;3.00;2.55;;;;;;;;;;4943420;28;20039;-60
2022/05/12 16:52:48;;;;;;;3.25;2.45;;;;;;;;;;5054067;28;20040;-60
2022/05/12 16:55:26;;;;;;;3.72;3.03;;;;;;;;;;5036910;28;20087;-60
2022/05/12 16:57:58;;;;;;;5.47;2.92;;;;;;;;;;5035834;28;20116;-60
2022/05/12 17:00:36;;;;;;;;;;;;;;;;;;;;;
2022/05/12 17:03:28;;;;;;;4.35;3.17;;;;;;;;;;5012903;28;20558;-60
2022/05/12 17:06:07;;;;;;;3.78;3.17;;;;;;;;;;5057691;28;20067;-60
2022/05/12 17:09:10;;;;;;;4.15;3.75;;;;;;;;;;5037958;28;20044;-60
2022/05/12 17:11:58;;;;;;;4.43;3.92;;;;;;;;;;5057088;28;20079;-60
2022/05/12 17:14:33;;;;;;;5.63;4.03;;;;;;;;;;5054295;28;20040;-60
2022/05/12 17:17:41;;;;;;;5.40;4.70;;;;;;;;;;5057754;28;20039;-61
2022/05/12 17:20:14;;;;;;;6.90;4.47;;;;;;;;;;4987372;28;20098;-60
2022/05/12 17:22:41;;;;;;;7.03;4.38;;;;;;;;;;5055986;28;20025;-60
2022/05/12 17:28:08;;;;;;;7.43;5.20;;;;;;;;;;5077333;28;20039;-60
2022/05/12 17:34:02;;;;;;;5.22;4.07;;;;;;;;;;5061989;28;20144;-60
2022/05/12 17:36:43;;;;;;;5.53;4.55;;;;;;;;;;5075322;28;20033;-60
2022/05/12 17:39:31;;;;;;;5.18;4.68;;;;;;;;;;5073207;28;20478;-60
2022/05/12 17:42:14;;;;;;;6.25;4.88;;;;;;;;;;5076922;28;20028;-60
2022/05/12 17:44:52;;;;;;;9.05;4.93;;;;;;;;;;5076541;28;20078;-60
2022/05/12 17:47:53;;;;;;;;;;;;;;;;;;;;;
2022/05/12 17:51:11;;;;;;;;;;;;;;;;;;;;;
2022/05/12 17:53:53;;;;;;;5.13;4.60;;;;;;;;;;5067549;28;20037;-60
2022/05/12 17:56:41;;;;;;;7.47;4.55;;;;;;;;;;5057266;28;20486;-60
2022/05/12 17:59:13;;;;;;;7.05;6.35;;;;;;;;;;5056826;28;20550;-60
2022/05/12 18:05:29;;;;;;;6.72;4.38;;;;;;;;;;4993907;28;20066;-60
2022/05/12 18:11:03;;;;;;;6.43;4.97;;;;;;;;;;4955409;29;19997;-60
2022/05/12 18:19:16;;;;;;;6.32;4.70;;;;;;;;;;4970614;28;20377;-60
2022/05/12 18:22:11;;;;;;;7.53;5.65;;;;;;;;;;4994289;28;20034;-58
2022/05/12 18:28:03;;;;;;;8.02;5.28;;;;;;;;;;5075239;28;20125;-60
2022/05/12 18:30:41;;;;;;;8.60;5.75;;;;;;;;;;5075476;28;20111;-60
2022/05/12 18:39:27;;;;;;;7.95;5.68;;;;;;;;;;4994086;28;19913;-59
2022/05/12 18:42:00;;;;;;;7.82;6.05;;;;;;;;;;4994023;28;20400;-59
2022/05/12 18:44:59;;;;;;;;;;;;;;;;;;;;;
2022/05/12 18:47:40;;;;;;;9.07;6.60;;;;;;;;;;5064097;28;20039;-59
2022/05/12 18:51:06;;;;;;;8.05;6.28;;;;;;;;;;5046522;28;20039;-59
2022/05/12 18:53:41;;;;;;;8.23;6.97;;;;;;;;;;5013925;28;20459;-59
2022/05/12 18:56:22;;;;;;;7.50;6.80;;;;;;;;;;4998494;28;20034;-59
2022/05/12 18:59:04;;;;;;;7.88;7.07;;;;;;;;;;4996984;28;20515;-59
2022/05/12 19:01:44;;;;;;;8.23;6.78;;;;;;;;;;4997956;28;20511;-59
2022/05/12 19:04:40;;;;;;;9.88;8.25;;;;;;;;;;5000958;28;20036;-60
2022/05/12 19:07:19;;;;;;;10.52;8.07;;;;;;;;;;5073267;28;20115;-59
2022/05/12 19:10:26;;;;;;;9.60;6.93;;;;;;;;;;5073770;28;20154;-59
2022/05/12 19:13:16;;;;;;;8.43;6.70;;;;;;;;;;5074007;28;20032;-59
2022/05/12 19:15:56;;;;;;;10.60;6.68;;;;;;;;;;4991462;28;20419;-59
2022/05/12 19:18:41;;;;;;;;;;;;;;;;;;;;;
2022/05/12 19:21:20;;;;;;;7.78;6.15;;;;;;;;;;5031514;28;19994;-59
2022/05/12 19:27:26;;;;;;;7.32;6.57;;;;;;;;;;5012456;28;20176;-59
2022/05/12 19:30:20;;;;;;;7.18;6.47;;;;;;;;;;4973499;28;20042;-59
2022/05/12 19:36:23;;;;;;;;;;;;;;;;;;;;;
2022/05/12 19:38:58;;;;;;;8.07;6.10;;;;;;;;;;5013692;28;20105;-59
2022/05/12 19:41:59;;;;;;;8.32;6.05;;;;;;;;;;5049730;28;20459;-59
2022/05/12 19:44:33;;;;;;;7.95;5.35;;;;;;;;;;5072379;28;20427;-59
2022/05/12 19:50:02;;;;;;;8.63;6.53;;;;;;;;;;5061963;28;20055;-59
2022/05/12 19:53:09;;;;;;;9.93;5.85;;;;;;;;;;5073368;28;20027;-59
2022/05/12 19:55:45;;;;;;;8.38;6.15;;;;;;;;;;5039194;28;20482;-59
2022/05/12 19:58:18;;;;;;;7.93;5.55;;;;;;;;;;5073145;28;20390;-59
2022/05/12 20:07:27;;;;;;;6.15;5.22;;;;;;;;;;5040980;28;20029;-59
2022/05/12 20:13:32;;;;;;;6.93;6.05;;;;;;;;;;4953280;28;20035;-59
2022/05/12 20:16:34;;;;;;;;;;;;;;;;;;;;;
2022/05/12 20:19:31;;;;;;;10.55;6.63;;;;;;;;;;5073430;28;20451;-59
2022/05/12 20:25:35;;;;;;;6.40;5.32;;;;;;;;;;5026394;28;20048;-59
2022/05/12 20:28:25;;;;;;;8.43;6.50;;;;;;;;;;5052376;28;20359;-59
2022/05/12 20:34:18;;;;;;;;;;;;;;;;;;;;;
2022/05/12 20:37:31;;;;;;;9.93;6.47;;;;;;;;;;5047801;28;20405;-59
2022/05/12 20:40:09;;;;;;;8.57;6.38;;;;;;;;;;5073673;28;20085;-59
2022/05/12 20:42:58;;;;;;;7.22;6.13;;;;;;;;;;5060298;28;20486;-59
2022/05/12 20:48:17;;;;;;;6.90;6.07;;;;;;;;;;5076510;28;20043;-59
2022/05/12 20:51:19;;;;;;;7.43;5.70;;;;;;;;;;5059671;28;20470;-59
2022/05/12 20:54:06;;;;;;;7.25;5.90;;;;;;;;;;5027667;28;20037;-59
2022/05/12 20:56:36;;;;;;;7.07;5.28;;;;;;;;;;5059098;28;20501;-59
2022/05/12 20:59:16;;;;;;;5.93;5.03;;;;;;;;;;5077291;28;20025;-59
2022/05/12 21:02:03;;;;;;;8.10;5.70;;;;;;;;;;5078934;28;20386;-59
2022/05/12 21:04:53;;;;;;;6.43;5.82;;;;;;;;;;5081656;28;20557;-59
2022/05/12 21:07:24;;;;;;;6.55;4.90;;;;;;;;;;5081670;28;20028;-59
2022/05/12 21:09:54;;;;;;;;;;;;;;;;;;5083313;28;20060;-59
2022/05/12 21:16:46;;;;;;;;;;;;;;;;;;;;;
2022/05/12 21:18:50;;;;;;;8.13;6.10;;;;;;;;;;5061075;28;20024;-59
2022/05/12 21:21:30;;;;;;;6.93;5.28;;;;;;;;;;5062846;28;20040;-59
2022/05/12 21:24:30;;;;;;;5.82;5.30;;;;;;;;;;5061040;28;20044;-59
2022/05/12 21:33:07;;;;;;;8.55;6.10;;;;;;;;;;5054028;28;20028;-59
2022/05/12 21:35:39;;;;;;;6.45;5.78;;;;;;;;;;5066136;28;20497;-59
2022/05/12 21:38:40;;;;;;;;;;;;;;;;;;;;;
2022/05/12 21:41:15;;;;;;;7.53;6.40;;;;;;;;;;5081349;28;20111;-59
2022/05/12 21:46:46;;;;;;;7.38;6.53;;;;;;;;;;5082559;28;20045;-59
2022/05/12 21:55:32;;;;;;;;;;;;;;;;;;;;;
2022/05/12 22:16:07;;;;;;;6.60;5.75;;;;;;;;;;5036990;28;20067;-59
2022/05/12 22:18:46;;;;;;;6.53;5.85;;;;;;;;;;5065766;28;20104;-59
2022/05/12 22:21:41;;;;;;;9.02;5.70;;;;;;;;;;5084175;28;20032;-59
2022/05/12 22:27:36;;;;;;;7.05;5.53;;;;;;;;;;5084435;28;20096;-59
2022/05/12 22:30:17;;;;;;;6.93;5.70;;;;;;;;;;5048186;28;20070;-59
2022/05/12 22:32:56;;;;;;;7.47;5.78;;;;;;;;;;5062625;28;20528;-59
2022/05/12 22:35:43;;;;;;;7.03;5.80;;;;;;;;;;5062236;28;20045;-59
2022/05/12 22:38:23;;;;;;;8.38;5.80;;;;;;;;;;5061898;28;20040;-59
2022/05/12 22:40:57;;;;;;;8.07;6.63;;;;;;;;;;5062861;28;20226;-59
2022/05/12 22:43:47;;;;;;;6.00;5.03;;;;;;;;;;5062969;28;20021;-59
2022/05/12 22:46:16;;;;;;;6.65;5.88;;;;;;;;;;5046088;28;20052;-59
2022/05/12 22:49:02;;;;;;;;;;;;;;;;;;;;;
2022/05/12 22:51:41;;;;;;;6.68;5.95;;;;;;;;;;5062573;28;20116;-59
2022/05/12 22:57:29;;;;;;;9.00;6.18;;;;;;;;;;5002228;28;20035;-59
2022/05/12 23:03:13;;;;;;;6.25;5.53;;;;;;;;;;5055939;28;20522;-59